»·PEaware :: N416JK KINW-KPHX

N416JK :: KINW-KPHX

FLIGHT INFORMATION

Flight Status: Arrived
Operator: Privately registered:
United States
More flights under this callsign
Pilot: John K. (4202)
Aircraft: CESSNA 206 STATIONAIR
(C206)
More flights by this aircraft type
Origin: KINW Winslow-Lindbergh Regl
United States
Destination: KPHX Phoenix Sky Harbor Intl
United States
More flights between these airports :: More routes between these airports
Route: INW V95 PXR
File this flight plan on PilotEdge
Remarks:
Altitude:
(Current/Filed)
10,000ft
Speed:
(Current/Filed)
140kts
Departed: 31-Oct-20 09:32 AM
Arrived: 31-Oct-20 10:36 AM
Distance/Time
Traveled:
115nm/1:04
Distance/Time
To Go:
Arrived

Flight Plot

Page will automatically refresh every two minutes.

Flight plan parsing failed; only flown route is shown


Map Options




Map Legend


Flown Route
Filed Route
Departure Airport
Arrival Airport
Navaid (VOR, NDB)
Fix

Horizontal Profiles

Position Reports

Time Latitude Longitude Heading Altitude Ground
Speed
31-Oct-20 09:23 35.023089 -110.717696 25 4942ft 0kts
31-Oct-20 09:24 35.023089 -110.717696 25 4942ft 0kts
31-Oct-20 09:25 35.023089 -110.717696 25 4942ft 0kts
31-Oct-20 09:26 35.023089 -110.717696 25 4942ft 0kts
31-Oct-20 09:27 35.023500 -110.718006 296 4943ft 4kts
31-Oct-20 09:28 35.027029 -110.725800 292 4943ft 27kts
31-Oct-20 09:29 35.028194 -110.727757 4 4943ft 0kts
31-Oct-20 09:30 35.028204 -110.727756 5 4943ft 1kts
31-Oct-20 09:31 35.022431 -110.711084 114 5472ft 89kts
31-Oct-20 09:32 35.007062 -110.692095 185 6716ft 87kts
31-Oct-20 09:33 35.009659 -110.713666 312 7878ft 102kts
31-Oct-20 09:34 35.025000 -110.739428 297 9262ft 93kts
31-Oct-20 09:35 35.041690 -110.767087 306 10078ft 117kts
31-Oct-20 09:36 35.063808 -110.802421 287 9956ft 139kts
31-Oct-20 09:37 35.062632 -110.848222 266 9960ft 129kts
31-Oct-20 09:38 35.043202 -110.871571 152 9958ft 114kts
31-Oct-20 09:39 35.047715 -110.842228 46 9963ft 101kts
31-Oct-20 09:40 35.059945 -110.814535 81 9962ft 96kts
31-Oct-20 09:41 35.059516 -110.784384 141 9960ft 92kts
31-Oct-20 09:42 35.042074 -110.796090 244 9971ft 82kts
31-Oct-20 09:43 35.026160 -110.816983 219 9986ft 109kts
31-Oct-20 09:44 34.996035 -110.842401 213 9974ft 147kts
31-Oct-20 09:45 34.961320 -110.868773 212 9974ft 151kts
31-Oct-20 09:46 34.926048 -110.894878 212 9974ft 152kts
31-Oct-20 09:47 34.890774 -110.920828 212 9973ft 151kts
31-Oct-20 09:48 34.854865 -110.947195 212 9973ft 151kts
31-Oct-20 09:49 34.819682 -110.972997 212 9973ft 151kts
31-Oct-20 09:51 34.784441 -110.998814 212 9973ft 151kts
31-Oct-20 09:52 34.749206 -111.024601 212 9973ft 151kts
31-Oct-20 09:53 34.713286 -111.050875 211 9973ft 150kts
31-Oct-20 09:54 34.678316 -111.076407 211 9973ft 149kts
31-Oct-20 09:55 34.643274 -111.101973 211 9957ft 151kts
31-Oct-20 09:56 34.608075 -111.127632 211 9927ft 150kts
31-Oct-20 09:57 34.572296 -111.153683 211 9927ft 150kts
31-Oct-20 09:58 34.537271 -111.179162 211 9927ft 150kts
31-Oct-20 09:59 34.502448 -111.204469 211 9927ft 150kts
31-Oct-20 10:00 34.467525 -111.229823 211 9927ft 150kts
31-Oct-20 10:01 34.432412 -111.255299 211 9928ft 150kts
31-Oct-20 10:02 34.396837 -111.281088 211 9927ft 148kts
31-Oct-20 10:03 34.362216 -111.306159 210 9927ft 148kts
31-Oct-20 10:04 34.327573 -111.331211 209 9927ft 147kts
31-Oct-20 10:05 34.292994 -111.356179 209 9928ft 149kts
31-Oct-20 10:06 34.257249 -111.381961 209 9928ft 151kts
31-Oct-20 10:07 34.221836 -111.407493 209 9928ft 151kts
31-Oct-20 10:07 34.192564 -111.428579 209 9927ft 150kts
31-Oct-20 10:09 34.151707 -111.457969 210 9927ft 148kts
31-Oct-20 10:09 34.122401 -111.479031 210 9927ft 147kts
31-Oct-20 10:11 34.082910 -111.507381 211 10153ft 137kts
31-Oct-20 10:11 34.055255 -111.527248 211 10165ft 145kts
31-Oct-20 10:12 34.020960 -111.551851 211 10165ft 147kts
31-Oct-20 10:13 33.985747 -111.577077 211 10165ft 147kts
31-Oct-20 10:14 33.951480 -111.601599 211 10165ft 147kts
31-Oct-20 10:15 33.916235 -111.626805 211 9994ft 151kts
31-Oct-20 10:16 33.881250 -111.651789 211 9991ft 148kts
31-Oct-20 10:17 33.845128 -111.677851 211 9390ft 161kts
31-Oct-20 10:18 33.806346 -111.705538 211 7961ft 164kts
31-Oct-20 10:19 33.768486 -111.732520 211 6484ft 158kts
31-Oct-20 10:20 33.734923 -111.756386 210 6078ft 135kts
31-Oct-20 10:21 33.705682 -111.777208 208 6028ft 133kts
31-Oct-20 10:22 33.674607 -111.799198 210 6028ft 133kts
31-Oct-20 10:23 33.643717 -111.821174 209 6029ft 133kts
31-Oct-20 10:24 33.621332 -111.854484 239 6028ft 133kts
31-Oct-20 10:25 33.601815 -111.891383 238 6027ft 131kts
31-Oct-20 10:26 33.582601 -111.928257 238 6029ft 132kts
31-Oct-20 10:27 33.561742 -111.969428 239 5030ft 167kts
31-Oct-20 10:28 33.540010 -112.012314 238 3425ft 144kts
31-Oct-20 10:29 33.520249 -112.044977 204 2815ft 92kts
31-Oct-20 10:30 33.498755 -112.047890 174 2749ft 81kts
31-Oct-20 10:31 33.476562 -112.049064 178 2395ft 78kts
31-Oct-20 10:32 33.455050 -112.051014 178 1918ft 82kts
31-Oct-20 10:33 33.433265 -112.049020 147 1530ft 73kts
31-Oct-20 10:34 33.428960 -112.024502 92 1153ft 80kts
31-Oct-20 10:35 33.427851 -112.016699 227 1138ft 0kts
31-Oct-20 10:36 33.427768 -112.019943 272 1138ft 41kts
31-Oct-20 10:37 33.427054 -112.022708 69 1138ft 15kts
31-Oct-20 10:38 33.426499 -112.021355 183 1138ft 0kts

Navigation Log

Ident Type
Flight plan parsing failed, navigation log unavailable